RJSY Airport Information

Runway Information
Runway 09 Length 6560 ft width 150 ft Elevation 59 ft Threshold N/A Heading 79
Runway 27 Length 6560 ft Width 150 ft Elevation 86 ft Threshold N/A Heading 259
Airport Frequencies
Type A/G Name RDO Frequency 118.8 MHZ
Airport Navaids
Type VOR-DME Name Shonai Frequency 109600 KHZ
Airport Weather Information & NOTAM
ADDS - METARS form results

(1037 UTC 30 January 2023)
Data provider http://aviationweather.gov/metar/data/
 
METAR text: RJSY 301000Z 31018G30KT 280V360 9999 -SHSN FEW010 SCT020 BKN035 01/M03 Q1012
Conditions at: RJSY (SHONAI , JP) observed 1000 UTC 30 January 2023
Temperature: 1.0°C (34°F)
Dewpoint: -3.0°C (27°F) [RH = 75%]
Pressure (altimeter): 29.88 inches Hg (1012.0 mb)
Winds: from the NW (310 degrees) at 21 MPH (18 knots; 9.3 m/s)
gusting to 34 MPH (30 knots; 15.4 m/s)
Visibility: 6 or more miles (10+ km)
Ceiling: 3500 feet AGL
Clouds: few clouds at 1000 feet AGL
scattered clouds at 2000 feet AGL
broken clouds at 3500 feet AGL
Weather: -SHSN  (light snow showers)

METAR text: RJSY 300938Z 32016G27KT 290V010 9999 -SHSN FEW005 SCT020 BKN030 01/M02 Q1012 RMK 1ST005 3CU020 5CU030 A2989 P/RR
Conditions at: RJSY (SHONAI , JP) observed 0938 UTC 30 January 2023
Temperature: 1.0°C (34°F)
Dewpoint: -2.0°C (28°F) [RH = 80%]
Pressure (altimeter): 29.88 inches Hg (1012.0 mb)
Winds: from the NW (320 degrees) at 18 MPH (16 knots; 8.2 m/s)
gusting to 31 MPH (27 knots; 13.9 m/s)
Visibility: 6 or more miles (10+ km)
Ceiling: 3000 feet AGL
Clouds: few clouds at 500 feet AGL
scattered clouds at 2000 feet AGL
broken clouds at 3000 feet AGL
Weather: -SHSN  (light snow showers)